sensor_id;sensor_type;location;lat;lon;timestamp;temperature;humidity
11944;DHT22;6031;50.220;10.122;2023-06-10T00:00:44;15.30;1.00
11944;DHT22;6031;50.220;10.122;2023-06-10T00:03:10;15.20;1.00
11944;DHT22;6031;50.220;10.122;2023-06-10T00:05:36;15.20;1.00
11944;DHT22;6031;50.220;10.122;2023-06-10T00:08:04;15.20;1.00
11944;DHT22;6031;50.220;10.122;2023-06-10T00:10:36;15.20;1.00
11944;DHT22;6031;50.220;10.122;2023-06-10T00:13:03;15.20;71.90
11944;DHT22;6031;50.220;10.122;2023-06-10T00:15:29;15.10;99.90
11944;DHT22;6031;50.220;10.122;2023-06-10T00:17:55;15.00;1.00
11944;DHT22;6031;50.220;10.122;2023-06-10T00:20:21;14.90;1.00
11944;DHT22;6031;50.220;10.122;2023-06-10T00:22:50;14.90;56.40
11944;DHT22;6031;50.220;10.122;2023-06-10T00:25:16;14.90;16.90
11944;DHT22;6031;50.220;10.122;2023-06-10T00:27:42;14.80;99.90
11944;DHT22;6031;50.220;10.122;2023-06-10T00:30:08;14.70;99.90
11944;DHT22;6031;50.220;10.122;2023-06-10T00:32:34;14.60;1.00
11944;DHT22;6031;50.220;10.122;2023-06-10T00:35:00;14.60;1.00
11944;DHT22;6031;50.220;10.122;2023-06-10T00:37:26;14.60;1.00
11944;DHT22;6031;50.220;10.122;2023-06-10T00:39:52;14.60;99.90
11944;DHT22;6031;50.220;10.122;2023-06-10T00:42:18;14.60;1.00
11944;DHT22;6031;50.220;10.122;2023-06-10T00:44:44;14.50;99.90
11944;DHT22;6031;50.220;10.122;2023-06-10T00:47:10;14.40;1.00
11944;DHT22;6031;50.220;10.122;2023-06-10T00:49:35;14.40;99.90
11944;DHT22;6031;50.220;10.122;2023-06-10T00:52:03;14.30;99.90
11944;DHT22;6031;50.220;10.122;2023-06-10T00:54:30;14.30;1.00
11944;DHT22;6031;50.220;10.122;2023-06-10T00:56:56;14.30;99.90
11944;DHT22;6031;50.220;10.122;2023-06-10T00:59:21;14.30;1.00
11944;DHT22;6031;50.220;10.122;2023-06-10T01:01:47;14.30;1.00
11944;DHT22;6031;50.220;10.122;2023-06-10T01:04:13;14.20;1.00
11944;DHT22;6031;50.220;10.122;2023-06-10T01:06:54;14.30;1.00
11944;DHT22;6031;50.220;10.122;2023-06-10T01:11:58;14.30;1.00
11944;DHT22;6031;50.220;10.122;2023-06-10T01:14:27;14.20;1.00
11944;DHT22;6031;50.220;10.122;2023-06-10T01:16:53;14.20;1.00
11944;DHT22;6031;50.220;10.122;2023-06-10T01:19:19;14.30;1.00
11944;DHT22;6031;50.220;10.122;2023-06-10T01:21:44;14.10;99.90
11944;DHT22;6031;50.220;10.122;2023-06-10T01:24:17;14.00;99.90
11944;DHT22;6031;50.220;10.122;2023-06-10T01:26:44;14.00;1.00
11944;DHT22;6031;50.220;10.122;2023-06-10T01:29:16;14.10;99.90
11944;DHT22;6031;50.220;10.122;2023-06-10T01:31:56;14.00;1.00
11944;DHT22;6031;50.220;10.122;2023-06-10T01:34:24;13.90;91.00
11944;DHT22;6031;50.220;10.122;2023-06-10T01:36:50;13.80;1.00
11944;DHT22;6031;50.220;10.122;2023-06-10T01:39:17;13.80;1.00
11944;DHT22;6031;50.220;10.122;2023-06-10T01:41:47;13.70;99.90
11944;DHT22;6031;50.220;10.122;2023-06-10T01:44:18;13.60;1.00
11944;DHT22;6031;50.220;10.122;2023-06-10T01:46:43;13.60;1.00
11944;DHT22;6031;50.220;10.122;2023-06-10T01:49:09;13.70;31.80
11944;DHT22;6031;50.220;10.122;2023-06-10T01:51:34;13.60;1.00
11944;DHT22;6031;50.220;10.122;2023-06-10T01:54:00;13.50;99.90
11944;DHT22;6031;50.220;10.122;2023-06-10T01:56:26;13.50;99.90
11944;DHT22;6031;50.220;10.122;2023-06-10T01:58:51;13.50;99.90
11944;DHT22;6031;50.220;10.122;2023-06-10T02:01:20;13.40;1.00
11944;DHT22;6031;50.220;10.122;2023-06-10T02:03:45;13.40;99.90
11944;DHT22;6031;50.220;10.122;2023-06-10T02:06:11;13.40;1.00
11944;DHT22;6031;50.220;10.122;2023-06-10T02:08:36;13.50;1.00
11944;DHT22;6031;50.220;10.122;2023-06-10T02:11:02;13.40;99.90
11944;DHT22;6031;50.220;10.122;2023-06-10T02:13:27;13.40;1.00
11944;DHT22;6031;50.220;10.122;2023-06-10T02:15:53;13.50;1.00
11944;DHT22;6031;50.220;10.122;2023-06-10T02:18:20;13.50;99.90
11944;DHT22;6031;50.220;10.122;2023-06-10T02:20:46;13.40;1.00
11944;DHT22;6031;50.220;10.122;2023-06-10T02:23:11;13.30;1.00
11944;DHT22;6031;50.220;10.122;2023-06-10T02:25:37;13.30;99.90
11944;DHT22;6031;50.220;10.122;2023-06-10T02:28:02;13.30;1.00
11944;DHT22;6031;50.220;10.122;2023-06-10T02:30:28;13.30;1.00
11944;DHT22;6031;50.220;10.122;2023-06-10T02:32:54;13.30;99.90
11944;DHT22;6031;50.220;10.122;2023-06-10T02:35:21;13.30;99.90
11944;DHT22;6031;50.220;10.122;2023-06-10T02:37:47;13.30;96.60
11944;DHT22;6031;50.220;10.122;2023-06-10T02:40:13;13.20;1.00
11944;DHT22;6031;50.220;10.122;2023-06-10T02:42:38;13.20;99.90
11944;DHT22;6031;50.220;10.122;2023-06-10T02:45:05;13.20;1.00
11944;DHT22;6031;50.220;10.122;2023-06-10T02:47:30;13.20;1.00
11944;DHT22;6031;50.220;10.122;2023-06-10T02:49:56;13.20;99.90
11944;DHT22;6031;50.220;10.122;2023-06-10T02:52:21;13.00;99.90
11944;DHT22;6031;50.220;10.122;2023-06-10T02:54:48;13.00;99.90
11944;DHT22;6031;50.220;10.122;2023-06-10T02:57:13;12.90;99.90
11944;DHT22;6031;50.220;10.122;2023-06-10T02:59:40;12.70;1.00
11944;DHT22;6031;50.220;10.122;2023-06-10T03:02:06;12.70;1.00
11944;DHT22;6031;50.220;10.122;2023-06-10T03:04:32;12.80;1.00
11944;DHT22;6031;50.220;10.122;2023-06-10T03:06:58;12.90;99.90
11944;DHT22;6031;50.220;10.122;2023-06-10T03:09:25;12.90;99.90
11944;DHT22;6031;50.220;10.122;2023-06-10T03:11:51;13.00;1.00
11944;DHT22;6031;50.220;10.122;2023-06-10T03:14:16;13.00;1.00
11944;DHT22;6031;50.220;10.122;2023-06-10T03:16:42;12.90;99.90
11944;DHT22;6031;50.220;10.122;2023-06-10T03:19:08;12.90;99.90
11944;DHT22;6031;50.220;10.122;2023-06-10T03:21:34;12.90;99.90
11944;DHT22;6031;50.220;10.122;2023-06-10T03:24:00;12.80;54.40
11944;DHT22;6031;50.220;10.122;2023-06-10T03:26:26;12.80;1.00
11944;DHT22;6031;50.220;10.122;2023-06-10T03:28:52;12.80;99.90
11944;DHT22;6031;50.220;10.122;2023-06-10T03:31:18;12.90;1.00
11944;DHT22;6031;50.220;10.122;2023-06-10T03:33:44;12.90;99.90
11944;DHT22;6031;50.220;10.122;2023-06-10T03:36:09;13.00;1.00
11944;DHT22;6031;50.220;10.122;2023-06-10T03:38:35;13.00;1.00
11944;DHT22;6031;50.220;10.122;2023-06-10T03:41:02;12.90;99.90
11944;DHT22;6031;50.220;10.122;2023-06-10T03:43:27;12.90;1.00
11944;DHT22;6031;50.220;10.122;2023-06-10T03:45:53;12.90;1.00
11944;DHT22;6031;50.220;10.122;2023-06-10T03:48:19;12.90;63.40
11944;DHT22;6031;50.220;10.122;2023-06-10T03:50:44;12.90;1.00
11944;DHT22;6031;50.220;10.122;2023-06-10T03:53:10;12.90;1.00
11944;DHT22;6031;50.220;10.122;2023-06-10T03:55:35;13.00;99.90
11944;DHT22;6031;50.220;10.122;2023-06-10T03:58:01;13.00;1.00
11944;DHT22;6031;50.220;10.122;2023-06-10T04:00:27;13.00;1.00
11944;DHT22;6031;50.220;10.122;2023-06-10T04:02:52;13.00;99.90
11944;DHT22;6031;50.220;10.122;2023-06-10T04:05:19;13.10;1.00
11944;DHT22;6031;50.220;10.122;2023-06-10T04:07:48;13.10;1.00
11944;DHT22;6031;50.220;10.122;2023-06-10T04:10:14;13.20;1.00
11944;DHT22;6031;50.220;10.122;2023-06-10T04:12:39;13.20;1.00
11944;DHT22;6031;50.220;10.122;2023-06-10T04:15:06;13.30;99.90
11944;DHT22;6031;50.220;10.122;2023-06-10T04:17:31;13.40;8.50
11944;DHT22;6031;50.220;10.122;2023-06-10T04:19:57;13.50;1.00
11944;DHT22;6031;50.220;10.122;2023-06-10T04:22:23;13.60;1.00
11944;DHT22;6031;50.220;10.122;2023-06-10T04:24:49;13.60;1.00
11944;DHT22;6031;50.220;10.122;2023-06-10T04:27:15;13.70;1.00
11944;DHT22;6031;50.220;10.122;2023-06-10T04:29:41;13.80;99.90
11944;DHT22;6031;50.220;10.122;2023-06-10T04:32:07;13.90;99.90
11944;DHT22;6031;50.220;10.122;2023-06-10T04:34:37;14.00;99.90
11944;DHT22;6031;50.220;10.122;2023-06-10T04:37:05;14.10;99.90
11944;DHT22;6031;50.220;10.122;2023-06-10T04:39:31;14.10;99.90
11944;DHT22;6031;50.220;10.122;2023-06-10T04:41:57;14.10;73.20
11944;DHT22;6031;50.220;10.122;2023-06-10T04:44:23;14.30;99.90
11944;DHT22;6031;50.220;10.122;2023-06-10T04:46:48;14.40;1.00
11944;DHT22;6031;50.220;10.122;2023-06-10T04:49:14;14.50;99.90
11944;DHT22;6031;50.220;10.122;2023-06-10T04:51:40;14.60;99.90
11944;DHT22;6031;50.220;10.122;2023-06-10T04:54:06;14.80;56.60
11944;DHT22;6031;50.220;10.122;2023-06-10T04:56:32;15.00;1.00
11944;DHT22;6031;50.220;10.122;2023-06-10T04:58:57;15.20;1.00
11944;DHT22;6031;50.220;10.122;2023-06-10T05:01:23;15.30;99.90
11944;DHT22;6031;50.220;10.122;2023-06-10T05:03:49;15.50;1.00
11944;DHT22;6031;50.220;10.122;2023-06-10T05:06:14;15.70;1.00
11944;DHT22;6031;50.220;10.122;2023-06-10T05:08:40;15.90;99.90
11944;DHT22;6031;50.220;10.122;2023-06-10T05:11:05;16.10;99.90
11944;DHT22;6031;50.220;10.122;2023-06-10T05:13:31;16.30;99.90
11944;DHT22;6031;50.220;10.122;2023-06-10T05:15:57;16.50;99.90
11944;DHT22;6031;50.220;10.122;2023-06-10T05:18:22;16.60;1.00
11944;DHT22;6031;50.220;10.122;2023-06-10T05:20:48;16.80;1.00
11944;DHT22;6031;50.220;10.122;2023-06-10T05:23:14;17.00;1.00
11944;DHT22;6031;50.220;10.122;2023-06-10T05:25:40;17.20;1.00
11944;DHT22;6031;50.220;10.122;2023-06-10T05:28:06;17.40;99.90
11944;DHT22;6031;50.220;10.122;2023-06-10T05:30:38;17.50;99.90
11944;DHT22;6031;50.220;10.122;2023-06-10T05:33:04;17.70;99.90
11944;DHT22;6031;50.220;10.122;2023-06-10T05:35:29;17.80;99.90
11944;DHT22;6031;50.220;10.122;2023-06-10T05:37:55;18.00;99.90
11944;DHT22;6031;50.220;10.122;2023-06-10T05:40:20;18.10;99.90
11944;DHT22;6031;50.220;10.122;2023-06-10T05:42:46;18.30;1.00
11944;DHT22;6031;50.220;10.122;2023-06-10T05:45:11;18.50;1.00
11944;DHT22;6031;50.220;10.122;2023-06-10T05:47:37;18.70;1.00
11944;DHT22;6031;50.220;10.122;2023-06-10T05:50:03;18.90;1.00
11944;DHT22;6031;50.220;10.122;2023-06-10T05:52:35;19.10;99.90
11944;DHT22;6031;50.220;10.122;2023-06-10T05:55:02;19.40;99.90
11944;DHT22;6031;50.220;10.122;2023-06-10T05:57:28;19.70;99.90
11944;DHT22;6031;50.220;10.122;2023-06-10T05:59:53;19.90;53.80
11944;DHT22;6031;50.220;10.122;2023-06-10T06:02:19;20.40;1.00
11944;DHT22;6031;50.220;10.122;2023-06-10T06:04:44;21.30;1.00
11944;DHT22;6031;50.220;10.122;2023-06-10T06:07:10;22.30;1.00
11944;DHT22;6031;50.220;10.122;2023-06-10T06:09:35;22.90;1.00
11944;DHT22;6031;50.220;10.122;2023-06-10T06:12:01;23.20;1.00
11944;DHT22;6031;50.220;10.122;2023-06-10T06:14:30;23.40;1.00
11944;DHT22;6031;50.220;10.122;2023-06-10T06:16:55;23.60;1.00
11944;DHT22;6031;50.220;10.122;2023-06-10T06:19:21;23.80;1.00
11944;DHT22;6031;50.220;10.122;2023-06-10T06:21:46;24.00;1.00
11944;DHT22;6031;50.220;10.122;2023-06-10T06:24:12;24.30;1.00
11944;DHT22;6031;50.220;10.122;2023-06-10T06:26:38;24.00;1.00
11944;DHT22;6031;50.220;10.122;2023-06-10T06:29:03;24.10;1.00
11944;DHT22;6031;50.220;10.122;2023-06-10T06:31:29;24.30;1.00
11944;DHT22;6031;50.220;10.122;2023-06-10T06:33:55;25.10;1.00
11944;DHT22;6031;50.220;10.122;2023-06-10T06:36:20;25.40;1.00
11944;DHT22;6031;50.220;10.122;2023-06-10T06:38:46;25.40;1.00
11944;DHT22;6031;50.220;10.122;2023-06-10T06:41:11;25.50;1.00
11944;DHT22;6031;50.220;10.122;2023-06-10T06:43:37;25.30;1.00
11944;DHT22;6031;50.220;10.122;2023-06-10T06:46:02;25.30;1.00
11944;DHT22;6031;50.220;10.122;2023-06-10T06:48:28;25.60;1.00
11944;DHT22;6031;50.220;10.122;2023-06-10T06:50:53;25.90;1.00
11944;DHT22;6031;50.220;10.122;2023-06-10T06:53:21;25.90;1.00
11944;DHT22;6031;50.220;10.122;2023-06-10T06:55:47;25.60;1.00
11944;DHT22;6031;50.220;10.122;2023-06-10T06:58:12;25.30;1.00
11944;DHT22;6031;50.220;10.122;2023-06-10T07:00:38;25.90;1.00
11944;DHT22;6031;50.220;10.122;2023-06-10T07:03:03;25.90;1.00
11944;DHT22;6031;50.220;10.122;2023-06-10T07:05:29;25.80;1.00
11944;DHT22;6031;50.220;10.122;2023-06-10T07:07:56;26.00;1.00
11944;DHT22;6031;50.220;10.122;2023-06-10T07:10:22;26.70;1.00
11944;DHT22;6031;50.220;10.122;2023-06-10T07:12:48;26.90;1.00
11944;DHT22;6031;50.220;10.122;2023-06-10T07:15:14;27.30;1.00
11944;DHT22;6031;50.220;10.122;2023-06-10T07:17:39;27.50;1.00
11944;DHT22;6031;50.220;10.122;2023-06-10T07:20:05;27.10;1.00
11944;DHT22;6031;50.220;10.122;2023-06-10T07:22:31;27.70;1.00
11944;DHT22;6031;50.220;10.122;2023-06-10T07:24:57;28.10;1.00
11944;DHT22;6031;50.220;10.122;2023-06-10T07:27:22;28.00;1.00
11944;DHT22;6031;50.220;10.122;2023-06-10T07:29:48;28.10;1.00
11944;DHT22;6031;50.220;10.122;2023-06-10T07:32:13;28.00;99.90
11944;DHT22;6031;50.220;10.122;2023-06-10T07:34:39;28.70;99.90
11944;DHT22;6031;50.220;10.122;2023-06-10T07:37:05;29.00;99.90
11944;DHT22;6031;50.220;10.122;2023-06-10T07:39:30;29.30;99.90
11944;DHT22;6031;50.220;10.122;2023-06-10T07:41:56;30.10;99.90
11944;DHT22;6031;50.220;10.122;2023-06-10T07:44:22;30.50;99.90
11944;DHT22;6031;50.220;10.122;2023-06-10T07:46:48;30.70;99.90
11944;DHT22;6031;50.220;10.122;2023-06-10T07:49:14;30.30;99.90
11944;DHT22;6031;50.220;10.122;2023-06-10T07:51:40;30.30;99.90
11944;DHT22;6031;50.220;10.122;2023-06-10T07:54:05;29.70;99.90
11944;DHT22;6031;50.220;10.122;2023-06-10T07:56:31;28.90;99.90
11944;DHT22;6031;50.220;10.122;2023-06-10T07:58:57;29.50;99.90
11944;DHT22;6031;50.220;10.122;2023-06-10T08:01:23;29.60;99.90
11944;DHT22;6031;50.220;10.122;2023-06-10T08:03:48;30.30;99.90
11944;DHT22;6031;50.220;10.122;2023-06-10T08:06:14;30.90;99.90
11944;DHT22;6031;50.220;10.122;2023-06-10T08:08:39;31.70;99.90
11944;DHT22;6031;50.220;10.122;2023-06-10T08:11:08;31.70;99.90
11944;DHT22;6031;50.220;10.122;2023-06-10T08:13:34;32.30;99.90
11944;DHT22;6031;50.220;10.122;2023-06-10T08:15:59;32.30;99.90
11944;DHT22;6031;50.220;10.122;2023-06-10T08:18:25;32.20;99.90
11944;DHT22;6031;50.220;10.122;2023-06-10T08:20:50;32.00;99.90
11944;DHT22;6031;50.220;10.122;2023-06-10T08:23:16;32.00;99.90
11944;DHT22;6031;50.220;10.122;2023-06-10T08:25:42;32.00;99.90
11944;DHT22;6031;50.220;10.122;2023-06-10T08:28:07;32.00;99.90
11944;DHT22;6031;50.220;10.122;2023-06-10T08:30:33;32.30;99.90
11944;DHT22;6031;50.220;10.122;2023-06-10T08:32:58;31.70;99.90
11944;DHT22;6031;50.220;10.122;2023-06-10T08:35:24;32.00;99.90
11944;DHT22;6031;50.220;10.122;2023-06-10T08:37:50;32.30;99.90
11944;DHT22;6031;50.220;10.122;2023-06-10T08:40:15;31.90;99.90
11944;DHT22;6031;50.220;10.122;2023-06-10T08:43:00;32.60;99.90
11944;DHT22;6031;50.220;10.122;2023-06-10T08:45:30;33.00;99.90
11944;DHT22;6031;50.220;10.122;2023-06-10T08:48:03;33.60;99.90
11944;DHT22;6031;50.220;10.122;2023-06-10T08:50:36;33.50;99.90
11944;DHT22;6031;50.220;10.122;2023-06-10T08:53:05;33.00;99.90
11944;DHT22;6031;50.220;10.122;2023-06-10T08:55:33;32.80;99.90
11944;DHT22;6031;50.220;10.122;2023-06-10T08:58:00;33.10;99.90
11944;DHT22;6031;50.220;10.122;2023-06-10T09:00:26;33.20;99.90
11944;DHT22;6031;50.220;10.122;2023-06-10T09:02:52;34.60;99.90
11944;DHT22;6031;50.220;10.122;2023-06-10T09:05:18;33.90;99.90
11944;DHT22;6031;50.220;10.122;2023-06-10T09:07:46;34.70;99.90
11944;DHT22;6031;50.220;10.122;2023-06-10T09:10:12;33.90;99.90
11944;DHT22;6031;50.220;10.122;2023-06-10T09:12:38;33.40;99.90
11944;DHT22;6031;50.220;10.122;2023-06-10T09:15:05;33.90;99.90
11944;DHT22;6031;50.220;10.122;2023-06-10T09:17:31;34.20;99.90
11944;DHT22;6031;50.220;10.122;2023-06-10T09:19:57;34.20;99.90
11944;DHT22;6031;50.220;10.122;2023-06-10T09:22:23;34.60;99.90
11944;DHT22;6031;50.220;10.122;2023-06-10T09:24:49;34.50;99.90
11944;DHT22;6031;50.220;10.122;2023-06-10T09:27:15;34.20;99.90
11944;DHT22;6031;50.220;10.122;2023-06-10T09:29:53;34.80;99.90
11944;DHT22;6031;50.220;10.122;2023-06-10T09:32:19;34.60;99.90
11944;DHT22;6031;50.220;10.122;2023-06-10T09:34:46;34.30;99.90
11944;DHT22;6031;50.220;10.122;2023-06-10T09:37:12;34.70;99.90
11944;DHT22;6031;50.220;10.122;2023-06-10T09:39:39;34.50;99.90
11944;DHT22;6031;50.220;10.122;2023-06-10T09:42:18;35.10;99.90
11944;DHT22;6031;50.220;10.122;2023-06-10T09:44:51;34.50;99.90
11944;DHT22;6031;50.220;10.122;2023-06-10T09:47:22;34.40;99.90
11944;DHT22;6031;50.220;10.122;2023-06-10T09:49:51;34.50;99.90
11944;DHT22;6031;50.220;10.122;2023-06-10T09:52:26;34.00;99.90
11944;DHT22;6031;50.220;10.122;2023-06-10T09:54:52;34.70;99.90
11944;DHT22;6031;50.220;10.122;2023-06-10T09:57:19;34.80;99.90
11944;DHT22;6031;50.220;10.122;2023-06-10T09:59:45;34.00;99.90
11944;DHT22;6031;50.220;10.122;2023-06-10T10:02:15;34.50;99.90
11944;DHT22;6031;50.220;10.122;2023-06-10T10:04:41;34.80;99.90
11944;DHT22;6031;50.220;10.122;2023-06-10T10:07:07;35.30;99.90
11944;DHT22;6031;50.220;10.122;2023-06-10T10:09:35;36.00;99.90
11944;DHT22;6031;50.220;10.122;2023-06-10T10:12:02;35.60;99.90
11944;DHT22;6031;50.220;10.122;2023-06-10T10:14:30;35.20;99.90
11944;DHT22;6031;50.220;10.122;2023-06-10T10:16:57;35.20;99.90
11944;DHT22;6031;50.220;10.122;2023-06-10T10:19:28;34.00;99.90
11944;DHT22;6031;50.220;10.122;2023-06-10T10:22:04;32.00;99.90
11944;DHT22;6031;50.220;10.122;2023-06-10T10:24:34;32.80;99.90
11944;DHT22;6031;50.220;10.122;2023-06-10T10:27:07;33.90;99.90
11944;DHT22;6031;50.220;10.122;2023-06-10T10:29:39;35.10;99.90
11944;DHT22;6031;50.220;10.122;2023-06-10T10:32:07;36.10;99.90
11944;DHT22;6031;50.220;10.122;2023-06-10T10:34:38;36.00;99.90
11944;DHT22;6031;50.220;10.122;2023-06-10T10:37:08;36.40;99.90
11944;DHT22;6031;50.220;10.122;2023-06-10T10:39:34;37.00;99.90
11944;DHT22;6031;50.220;10.122;2023-06-10T10:42:02;35.80;99.90
11944;DHT22;6031;50.220;10.122;2023-06-10T10:44:29;35.80;99.90
11944;DHT22;6031;50.220;10.122;2023-06-10T10:46:55;35.10;99.90
11944;DHT22;6031;50.220;10.122;2023-06-10T10:49:22;34.80;99.90
11944;DHT22;6031;50.220;10.122;2023-06-10T10:52:01;35.50;99.90
11944;DHT22;6031;50.220;10.122;2023-06-10T10:54:33;35.20;99.90
11944;DHT22;6031;50.220;10.122;2023-06-10T10:57:18;35.70;99.90
11944;DHT22;6031;50.220;10.122;2023-06-10T11:02:41;36.00;99.90
11944;DHT22;6031;50.220;10.122;2023-06-10T11:05:15;36.00;99.90
11944;DHT22;6031;50.220;10.122;2023-06-10T11:07:41;35.60;99.90
11944;DHT22;6031;50.220;10.122;2023-06-10T11:10:16;35.50;99.90
11944;DHT22;6031;50.220;10.122;2023-06-10T11:15:11;35.60;99.90
11944;DHT22;6031;50.220;10.122;2023-06-10T11:17:37;35.80;99.90
11944;DHT22;6031;50.220;10.122;2023-06-10T11:20:44;35.60;99.90
11944;DHT22;6031;50.220;10.122;2023-06-10T11:23:10;36.40;99.90
11944;DHT22;6031;50.220;10.122;2023-06-10T11:25:39;35.90;99.90
11944;DHT22;6031;50.220;10.122;2023-06-10T11:28:18;35.40;99.90
11944;DHT22;6031;50.220;10.122;2023-06-10T11:30:44;34.40;99.90
11944;DHT22;6031;50.220;10.122;2023-06-10T11:33:16;34.20;99.90
11944;DHT22;6031;50.220;10.122;2023-06-10T11:35:43;33.70;99.90
11944;DHT22;6031;50.220;10.122;2023-06-10T11:38:09;33.90;99.90
11944;DHT22;6031;50.220;10.122;2023-06-10T11:40:36;34.60;99.90
11944;DHT22;6031;50.220;10.122;2023-06-10T11:43:03;34.40;99.90
11944;DHT22;6031;50.220;10.122;2023-06-10T11:45:29;34.60;99.90
11944;DHT22;6031;50.220;10.122;2023-06-10T11:47:58;34.70;99.90
11944;DHT22;6031;50.220;10.122;2023-06-10T11:50:28;33.10;99.90
11944;DHT22;6031;50.220;10.122;2023-06-10T11:52:54;31.90;99.90
11944;DHT22;6031;50.220;10.122;2023-06-10T11:55:21;31.40;99.90
11944;DHT22;6031;50.220;10.122;2023-06-10T11:57:46;32.10;99.90
11944;DHT22;6031;50.220;10.122;2023-06-10T12:00:13;32.90;99.90
11944;DHT22;6031;50.220;10.122;2023-06-10T12:02:39;33.60;99.90
11944;DHT22;6031;50.220;10.122;2023-06-10T12:05:14;33.70;99.90
11944;DHT22;6031;50.220;10.122;2023-06-10T12:07:40;32.70;99.90
11944;DHT22;6031;50.220;10.122;2023-06-10T12:10:05;31.40;99.90
11944;DHT22;6031;50.220;10.122;2023-06-10T12:12:31;31.00;99.90
11944;DHT22;6031;50.220;10.122;2023-06-10T12:15:00;31.60;99.90
11944;DHT22;6031;50.220;10.122;2023-06-10T12:19:57;34.00;99.90
11944;DHT22;6031;50.220;10.122;2023-06-10T12:22:23;34.70;99.90
11944;DHT22;6031;50.220;10.122;2023-06-10T12:25:01;34.80;99.90
11944;DHT22;6031;50.220;10.122;2023-06-10T12:27:27;33.00;99.90
11944;DHT22;6031;50.220;10.122;2023-06-10T12:29:56;33.00;99.90
11944;DHT22;6031;50.220;10.122;2023-06-10T12:32:38;32.70;99.90
11944;DHT22;6031;50.220;10.122;2023-06-10T12:35:05;31.80;99.90
11944;DHT22;6031;50.220;10.122;2023-06-10T12:37:31;31.60;99.90
11944;DHT22;6031;50.220;10.122;2023-06-10T12:40:00;32.90;99.90
11944;DHT22;6031;50.220;10.122;2023-06-10T12:42:26;33.80;99.90
11944;DHT22;6031;50.220;10.122;2023-06-10T12:44:55;35.30;99.90
11944;DHT22;6031;50.220;10.122;2023-06-10T12:47:29;35.30;99.90
11944;DHT22;6031;50.220;10.122;2023-06-10T12:49:57;34.90;99.90
11944;DHT22;6031;50.220;10.122;2023-06-10T12:52:24;33.90;99.90
11944;DHT22;6031;50.220;10.122;2023-06-10T12:54:49;33.90;99.90
11944;DHT22;6031;50.220;10.122;2023-06-10T12:57:15;33.80;99.90
11944;DHT22;6031;50.220;10.122;2023-06-10T12:59:40;34.00;99.90
11944;DHT22;6031;50.220;10.122;2023-06-10T13:02:09;34.20;99.90
11944;DHT22;6031;50.220;10.122;2023-06-10T13:04:36;34.20;99.90
11944;DHT22;6031;50.220;10.122;2023-06-10T13:07:01;33.70;99.90
11944;DHT22;6031;50.220;10.122;2023-06-10T13:09:27;34.10;99.90
11944;DHT22;6031;50.220;10.122;2023-06-10T13:11:53;34.30;99.90
11944;DHT22;6031;50.220;10.122;2023-06-10T13:14:18;34.30;99.90
11944;DHT22;6031;50.220;10.122;2023-06-10T13:16:44;34.10;99.90
11944;DHT22;6031;50.220;10.122;2023-06-10T13:19:10;33.60;99.90
11944;DHT22;6031;50.220;10.122;2023-06-10T13:21:36;33.90;99.90
11944;DHT22;6031;50.220;10.122;2023-06-10T13:24:02;34.30;99.90
11944;DHT22;6031;50.220;10.122;2023-06-10T13:26:28;34.50;99.90
11944;DHT22;6031;50.220;10.122;2023-06-10T13:28:54;34.40;99.90
11944;DHT22;6031;50.220;10.122;2023-06-10T13:31:19;34.10;99.90
11944;DHT22;6031;50.220;10.122;2023-06-10T13:33:46;33.40;99.90
11944;DHT22;6031;50.220;10.122;2023-06-10T13:36:12;32.80;99.90
11944;DHT22;6031;50.220;10.122;2023-06-10T13:38:38;32.20;99.90
11944;DHT22;6031;50.220;10.122;2023-06-10T13:41:03;31.40;99.90
11944;DHT22;6031;50.220;10.122;2023-06-10T13:43:29;30.60;99.90
11944;DHT22;6031;50.220;10.122;2023-06-10T13:45:54;30.20;99.90
11944;DHT22;6031;50.220;10.122;2023-06-10T13:48:20;30.30;99.90
11944;DHT22;6031;50.220;10.122;2023-06-10T13:50:46;30.40;99.90
11944;DHT22;6031;50.220;10.122;2023-06-10T13:53:12;30.70;99.90
11944;DHT22;6031;50.220;10.122;2023-06-10T13:55:37;31.70;99.90
11944;DHT22;6031;50.220;10.122;2023-06-10T13:58:03;32.00;99.90
11944;DHT22;6031;50.220;10.122;2023-06-10T14:00:29;31.70;99.90
11944;DHT22;6031;50.220;10.122;2023-06-10T14:02:54;31.10;99.90
11944;DHT22;6031;50.220;10.122;2023-06-10T14:05:19;30.00;99.90
11944;DHT22;6031;50.220;10.122;2023-06-10T14:07:45;29.70;99.90
11944;DHT22;6031;50.220;10.122;2023-06-10T14:10:11;29.90;99.90
11944;DHT22;6031;50.220;10.122;2023-06-10T14:12:36;30.30;99.90
11944;DHT22;6031;50.220;10.122;2023-06-10T14:15:02;30.20;99.90
11944;DHT22;6031;50.220;10.122;2023-06-10T14:17:28;30.40;99.90
11944;DHT22;6031;50.220;10.122;2023-06-10T14:19:53;30.40;99.90
11944;DHT22;6031;50.220;10.122;2023-06-10T14:22:19;30.30;99.90
11944;DHT22;6031;50.220;10.122;2023-06-10T14:24:44;30.50;99.90
11944;DHT22;6031;50.220;10.122;2023-06-10T14:27:10;31.10;99.90
11944;DHT22;6031;50.220;10.122;2023-06-10T14:29:35;30.50;99.90
11944;DHT22;6031;50.220;10.122;2023-06-10T14:32:01;30.70;99.90
11944;DHT22;6031;50.220;10.122;2023-06-10T14:34:26;30.00;99.90
11944;DHT22;6031;50.220;10.122;2023-06-10T14:36:55;29.40;99.90
11944;DHT22;6031;50.220;10.122;2023-06-10T14:39:20;29.10;99.90
11944;DHT22;6031;50.220;10.122;2023-06-10T14:41:46;29.10;99.90
11944;DHT22;6031;50.220;10.122;2023-06-10T14:44:11;28.70;99.90
11944;DHT22;6031;50.220;10.122;2023-06-10T14:46:37;28.40;99.90
11944;DHT22;6031;50.220;10.122;2023-06-10T14:49:02;28.00;99.90
11944;DHT22;6031;50.220;10.122;2023-06-10T14:51:28;27.60;99.90
11944;DHT22;6031;50.220;10.122;2023-06-10T14:53:53;27.80;99.90
11944;DHT22;6031;50.220;10.122;2023-06-10T14:56:19;28.00;99.90
11944;DHT22;6031;50.220;10.122;2023-06-10T14:58:44;28.40;99.90
11944;DHT22;6031;50.220;10.122;2023-06-10T15:01:10;29.00;99.90
11944;DHT22;6031;50.220;10.122;2023-06-10T15:03:35;29.40;99.90
11944;DHT22;6031;50.220;10.122;2023-06-10T15:06:01;29.40;99.90
11944;DHT22;6031;50.220;10.122;2023-06-10T15:08:26;29.80;99.90
11944;DHT22;6031;50.220;10.122;2023-06-10T15:10:53;30.10;99.90
11944;DHT22;6031;50.220;10.122;2023-06-10T15:13:19;30.40;99.90
11944;DHT22;6031;50.220;10.122;2023-06-10T15:15:45;30.00;99.90
11944;DHT22;6031;50.220;10.122;2023-06-10T15:18:11;29.90;99.90
11944;DHT22;6031;50.220;10.122;2023-06-10T15:20:37;29.80;99.90
11944;DHT22;6031;50.220;10.122;2023-06-10T15:23:03;30.40;99.90
11944;DHT22;6031;50.220;10.122;2023-06-10T15:25:28;30.80;99.90
11944;DHT22;6031;50.220;10.122;2023-06-10T15:27:54;30.60;99.90
11944;DHT22;6031;50.220;10.122;2023-06-10T15:30:20;30.40;99.90
11944;DHT22;6031;50.220;10.122;2023-06-10T15:32:45;30.20;99.90
11944;DHT22;6031;50.220;10.122;2023-06-10T15:35:10;30.50;99.90
11944;DHT22;6031;50.220;10.122;2023-06-10T15:37:37;30.50;99.90
11944;DHT22;6031;50.220;10.122;2023-06-10T15:40:03;30.60;99.90
11944;DHT22;6031;50.220;10.122;2023-06-10T15:42:28;30.60;99.90